sensor_id;sensor_type;location;lat;lon;timestamp;P1;P2;P0
69349;PMS5003;64554;43.452;4.934;2023-05-20T00:02:21;25.25;25.25;14.00
69349;PMS5003;64554;43.452;4.934;2023-05-20T00:04:48;25.20;25.00;16.60
69349;PMS5003;64554;43.452;4.934;2023-05-20T00:07:15;27.60;26.80;16.40
69349;PMS5003;64554;43.452;4.934;2023-05-20T00:09:41;24.00;24.00;16.60
69349;PMS5003;64554;43.452;4.934;2023-05-20T00:12:08;29.00;27.00;16.80
69349;PMS5003;64554;43.452;4.934;2023-05-20T00:14:34;27.50;26.00;15.00
69349;PMS5003;64554;43.452;4.934;2023-05-20T00:17:01;21.00;21.00;14.50
69349;PMS5003;64554;43.452;4.934;2023-05-20T00:19:28;25.00;23.00;16.00
69349;PMS5003;64554;43.452;4.934;2023-05-20T00:21:54;24.00;22.00;16.00
69349;PMS5003;64554;43.452;4.934;2023-05-20T00:24:23;24.40;23.80;16.00
69349;PMS5003;64554;43.452;4.934;2023-05-20T00:26:50;23.60;23.60;17.60
69349;PMS5003;64554;43.452;4.934;2023-05-20T00:29:16;28.40;26.60;17.80
69349;PMS5003;64554;43.452;4.934;2023-05-20T00:31:43;20.60;20.60;15.60
69349;PMS5003;64554;43.452;4.934;2023-05-20T00:34:10;25.00;20.40;16.00
69349;PMS5003;64554;43.452;4.934;2023-05-20T00:36:36;22.80;22.60;15.80
69349;PMS5003;64554;43.452;4.934;2023-05-20T00:39:03;16.80;16.80;11.20
69349;PMS5003;64554;43.452;4.934;2023-05-20T00:41:30;24.60;23.40;15.40
69349;PMS5003;64554;43.452;4.934;2023-05-20T00:43:57;21.50;18.50;12.00
69349;PMS5003;64554;43.452;4.934;2023-05-20T00:46:23;20.00;18.00;14.60
69349;PMS5003;64554;43.452;4.934;2023-05-20T00:48:51;23.00;22.75;14.50
69349;PMS5003;64554;43.452;4.934;2023-05-20T00:51:18;19.20;18.00;13.40
69349;PMS5003;64554;43.452;4.934;2023-05-20T00:53:45;20.00;18.50;14.00
69349;PMS5003;64554;43.452;4.934;2023-05-20T00:56:12;21.00;21.00;16.00
69349;PMS5003;64554;43.452;4.934;2023-05-20T00:58:38;21.40;18.40;13.20
69349;PMS5003;64554;43.452;4.934;2023-05-20T01:01:05;16.50;15.00;12.00
69349;PMS5003;64554;43.452;4.934;2023-05-20T01:03:32;23.00;21.00;15.00
69349;PMS5003;64554;43.452;4.934;2023-05-20T01:05:59;20.00;20.00;14.00
69349;PMS5003;64554;43.452;4.934;2023-05-20T01:08:26;18.00;18.00;13.00
69349;PMS5003;64554;43.452;4.934;2023-05-20T01:11:05;21.20;20.20;14.60
69349;PMS5003;64554;43.452;4.934;2023-05-20T01:13:35;18.50;18.50;12.75
69349;PMS5003;64554;43.452;4.934;2023-05-20T01:16:03;27.00;25.33;15.67
69349;PMS5003;64554;43.452;4.934;2023-05-20T01:18:29;20.75;20.25;14.75
69349;PMS5003;64554;43.452;4.934;2023-05-20T01:20:57;20.00;19.00;14.00
69349;PMS5003;64554;43.452;4.934;2023-05-20T01:23:36;20.40;19.00;14.00
69349;PMS5003;64554;43.452;4.934;2023-05-20T01:26:03;19.80;17.80;12.40
69349;PMS5003;64554;43.452;4.934;2023-05-20T01:28:32;20.50;18.75;13.75
69349;PMS5003;64554;43.452;4.934;2023-05-20T01:30:59;20.40;18.40;14.00
69349;PMS5003;64554;43.452;4.934;2023-05-20T01:33:27;19.50;19.50;13.50
69349;PMS5003;64554;43.452;4.934;2023-05-20T01:35:54;21.60;21.60;12.80
69349;PMS5003;64554;43.452;4.934;2023-05-20T01:38:20;20.00;18.80;13.80
69349;PMS5003;64554;43.452;4.934;2023-05-20T01:40:49;19.00;18.00;13.00
69349;PMS5003;64554;43.452;4.934;2023-05-20T01:43:16;23.00;21.00;16.00
69349;PMS5003;64554;43.452;4.934;2023-05-20T01:45:43;18.50;18.50;14.25
69349;PMS5003;64554;43.452;4.934;2023-05-20T01:48:10;18.00;18.00;13.00
69349;PMS5003;64554;43.452;4.934;2023-05-20T01:50:37;18.00;17.00;13.00
69349;PMS5003;64554;43.452;4.934;2023-05-20T01:53:03;16.50;16.50;13.00
69349;PMS5003;64554;43.452;4.934;2023-05-20T01:55:31;20.25;19.25;13.25
69349;PMS5003;64554;43.452;4.934;2023-05-20T01:57:57;19.50;19.50;16.00
69349;PMS5003;64554;43.452;4.934;2023-05-20T02:00:24;19.50;18.00;12.75
69349;PMS5003;64554;43.452;4.934;2023-05-20T02:02:51;18.00;18.00;12.60
69349;PMS5003;64554;43.452;4.934;2023-05-20T02:05:17;16.80;16.80;12.80
69349;PMS5003;64554;43.452;4.934;2023-05-20T02:07:44;17.60;17.60;12.00
69349;PMS5003;64554;43.452;4.934;2023-05-20T02:10:11;19.50;18.50;12.50
69349;PMS5003;64554;43.452;4.934;2023-05-20T02:12:37;19.00;17.40;12.40
69349;PMS5003;64554;43.452;4.934;2023-05-20T02:15:04;19.50;18.00;13.00
69349;PMS5003;64554;43.452;4.934;2023-05-20T02:17:31;19.40;19.40;13.80
69349;PMS5003;64554;43.452;4.934;2023-05-20T02:19:57;20.25;20.25;12.75
69349;PMS5003;64554;43.452;4.934;2023-05-20T02:22:24;24.00;23.00;15.00
69349;PMS5003;64554;43.452;4.934;2023-05-20T02:24:50;22.00;21.00;14.00
69349;PMS5003;64554;43.452;4.934;2023-05-20T02:27:17;21.80;21.80;14.00
69349;PMS5003;64554;43.452;4.934;2023-05-20T02:29:43;22.50;22.50;13.25
69349;PMS5003;64554;43.452;4.934;2023-05-20T02:32:10;22.00;22.00;15.00
69349;PMS5003;64554;43.452;4.934;2023-05-20T02:34:36;27.00;23.75;14.00
69349;PMS5003;64554;43.452;4.934;2023-05-20T02:37:03;23.25;22.25;13.25
69349;PMS5003;64554;43.452;4.934;2023-05-20T02:39:29;19.20;19.20;13.60
69349;PMS5003;64554;43.452;4.934;2023-05-20T02:41:56;18.60;18.60;13.00
69349;PMS5003;64554;43.452;4.934;2023-05-20T02:44:22;19.00;19.00;15.00
69349;PMS5003;64554;43.452;4.934;2023-05-20T02:46:49;24.40;23.00;14.00
69349;PMS5003;64554;43.452;4.934;2023-05-20T02:49:15;22.40;22.00;16.00
69349;PMS5003;64554;43.452;4.934;2023-05-20T02:51:42;21.00;21.00;14.40
69349;PMS5003;64554;43.452;4.934;2023-05-20T02:54:08;23.00;22.00;14.00
69349;PMS5003;64554;43.452;4.934;2023-05-20T02:56:36;25.00;22.00;16.60
69349;PMS5003;64554;43.452;4.934;2023-05-20T02:59:02;26.40;24.60;15.80
69349;PMS5003;64554;43.452;4.934;2023-05-20T03:01:30;20.00;19.75;14.25
69349;PMS5003;64554;43.452;4.934;2023-05-20T03:03:56;22.00;20.00;16.25
69349;PMS5003;64554;43.452;4.934;2023-05-20T03:06:23;20.00;20.00;16.00
69349;PMS5003;64554;43.452;4.934;2023-05-20T03:08:49;20.50;18.75;13.00
69349;PMS5003;64554;43.452;4.934;2023-05-20T03:11:16;28.80;26.40;16.00
69349;PMS5003;64554;43.452;4.934;2023-05-20T03:13:43;25.00;23.20;15.60
69349;PMS5003;64554;43.452;4.934;2023-05-20T03:16:09;23.20;22.00;17.00
69349;PMS5003;64554;43.452;4.934;2023-05-20T03:18:38;21.50;21.50;15.50
69349;PMS5003;64554;43.452;4.934;2023-05-20T03:21:05;20.00;19.60;16.00
69349;PMS5003;64554;43.452;4.934;2023-05-20T03:23:31;20.00;20.00;15.00
69349;PMS5003;64554;43.452;4.934;2023-05-20T03:25:58;21.50;20.75;17.00
69349;PMS5003;64554;43.452;4.934;2023-05-20T03:28:24;25.25;24.25;17.25
69349;PMS5003;64554;43.452;4.934;2023-05-20T03:30:51;27.50;27.50;16.00
69349;PMS5003;64554;43.452;4.934;2023-05-20T03:33:17;27.00;25.00;17.00
69349;PMS5003;64554;43.452;4.934;2023-05-20T03:35:44;22.40;21.40;14.00
69349;PMS5003;64554;43.452;4.934;2023-05-20T03:38:10;25.00;25.00;17.40
69349;PMS5003;64554;43.452;4.934;2023-05-20T03:40:37;25.40;23.40;16.00
69349;PMS5003;64554;43.452;4.934;2023-05-20T03:43:03;24.20;24.20;17.00
69349;PMS5003;64554;43.452;4.934;2023-05-20T03:45:30;24.00;22.50;15.00
69349;PMS5003;64554;43.452;4.934;2023-05-20T03:47:59;25.80;23.20;18.00
69349;PMS5003;64554;43.452;4.934;2023-05-20T03:50:25;23.00;22.00;16.00
69349;PMS5003;64554;43.452;4.934;2023-05-20T03:52:52;23.00;23.00;16.00
69349;PMS5003;64554;43.452;4.934;2023-05-20T03:55:19;24.50;23.50;16.00
69349;PMS5003;64554;43.452;4.934;2023-05-20T03:57:45;29.50;29.50;20.00
69349;PMS5003;64554;43.452;4.934;2023-05-20T04:00:12;23.20;22.00;15.00
69349;PMS5003;64554;43.452;4.934;2023-05-20T04:02:39;32.20;30.20;18.00
69349;PMS5003;64554;43.452;4.934;2023-05-20T04:05:07;31.20;30.20;18.60
69349;PMS5003;64554;43.452;4.934;2023-05-20T04:07:36;27.80;26.80;17.00
69349;PMS5003;64554;43.452;4.934;2023-05-20T04:10:03;31.00;30.00;18.67
69349;PMS5003;64554;43.452;4.934;2023-05-20T04:12:30;29.00;29.00;19.00
69349;PMS5003;64554;43.452;4.934;2023-05-20T04:14:58;32.50;30.00;16.25
69349;PMS5003;64554;43.452;4.934;2023-05-20T04:17:27;27.60;27.00;18.00
69349;PMS5003;64554;43.452;4.934;2023-05-20T04:19:55;22.80;22.00;15.80
69349;PMS5003;64554;43.452;4.934;2023-05-20T04:22:22;29.40;29.40;19.20
69349;PMS5003;64554;43.452;4.934;2023-05-20T04:24:49;28.00;28.00;17.50
69349;PMS5003;64554;43.452;4.934;2023-05-20T04:27:15;24.50;23.75;16.00
69349;PMS5003;64554;43.452;4.934;2023-05-20T04:29:42;24.80;24.80;17.80
69349;PMS5003;64554;43.452;4.934;2023-05-20T04:32:12;29.60;26.00;18.80
69349;PMS5003;64554;43.452;4.934;2023-05-20T04:34:39;35.67;31.67;19.67
69349;PMS5003;64554;43.452;4.934;2023-05-20T04:37:05;29.80;29.00;16.40
69349;PMS5003;64554;43.452;4.934;2023-05-20T04:39:35;26.33;24.33;16.33
69349;PMS5003;64554;43.452;4.934;2023-05-20T04:42:02;26.00;26.00;19.00
69349;PMS5003;64554;43.452;4.934;2023-05-20T04:44:29;25.50;25.50;18.00
69349;PMS5003;64554;43.452;4.934;2023-05-20T04:46:55;24.80;24.80;16.80
69349;PMS5003;64554;43.452;4.934;2023-05-20T04:49:23;23.00;23.00;18.00
69349;PMS5003;64554;43.452;4.934;2023-05-20T04:51:55;25.00;25.00;17.00
69349;PMS5003;64554;43.452;4.934;2023-05-20T04:54:21;31.00;28.80;18.80
69349;PMS5003;64554;43.452;4.934;2023-05-20T04:56:48;31.00;30.00;19.00
69349;PMS5003;64554;43.452;4.934;2023-05-20T04:59:14;29.40;29.40;18.80
69349;PMS5003;64554;43.452;4.934;2023-05-20T05:01:41;29.00;28.75;16.75
69349;PMS5003;64554;43.452;4.934;2023-05-20T05:04:08;26.00;26.00;19.00
69349;PMS5003;64554;43.452;4.934;2023-05-20T05:06:34;34.00;31.75;20.00
69349;PMS5003;64554;43.452;4.934;2023-05-20T05:09:01;26.20;26.20;17.20
69349;PMS5003;64554;43.452;4.934;2023-05-20T05:11:28;36.40;32.40;20.00
69349;PMS5003;64554;43.452;4.934;2023-05-20T05:13:54;30.00;29.50;17.25
69349;PMS5003;64554;43.452;4.934;2023-05-20T05:16:21;33.20;30.40;18.80
69349;PMS5003;64554;43.452;4.934;2023-05-20T05:18:48;35.50;32.75;20.50
69349;PMS5003;64554;43.452;4.934;2023-05-20T05:21:15;34.50;31.50;21.50
69349;PMS5003;64554;43.452;4.934;2023-05-20T05:23:41;33.80;30.40;16.60
69349;PMS5003;64554;43.452;4.934;2023-05-20T05:26:08;36.60;32.60;21.40
69349;PMS5003;64554;43.452;4.934;2023-05-20T05:28:34;25.20;25.00;17.40
69349;PMS5003;64554;43.452;4.934;2023-05-20T05:31:01;33.80;31.60;18.00
69349;PMS5003;64554;43.452;4.934;2023-05-20T05:33:27;29.60;28.00;18.00
69349;PMS5003;64554;43.452;4.934;2023-05-20T05:35:54;35.00;32.00;19.25
69349;PMS5003;64554;43.452;4.934;2023-05-20T05:38:24;35.25;33.00;19.00
69349;PMS5003;64554;43.452;4.934;2023-05-20T05:40:51;27.00;27.00;19.00
69349;PMS5003;64554;43.452;4.934;2023-05-20T05:43:18;33.20;32.00;20.00
69349;PMS5003;64554;43.452;4.934;2023-05-20T05:45:44;28.60;28.60;19.20
69349;PMS5003;64554;43.452;4.934;2023-05-20T05:48:11;30.60;28.60;19.00
69349;PMS5003;64554;43.452;4.934;2023-05-20T05:50:37;28.75;28.00;19.00
69349;PMS5003;64554;43.452;4.934;2023-05-20T05:53:04;34.00;32.00;20.00
69349;PMS5003;64554;43.452;4.934;2023-05-20T05:55:30;34.60;32.60;20.00
69349;PMS5003;64554;43.452;4.934;2023-05-20T05:57:57;29.67;26.67;17.67
69349;PMS5003;64554;43.452;4.934;2023-05-20T06:00:24;32.50;30.00;20.00
69349;PMS5003;64554;43.452;4.934;2023-05-20T06:02:50;40.00;34.00;22.00
69349;PMS5003;64554;43.452;4.934;2023-05-20T06:05:17;38.00;34.00;21.00
69349;PMS5003;64554;43.452;4.934;2023-05-20T06:07:44;37.50;32.75;21.50
69349;PMS5003;64554;43.452;4.934;2023-05-20T06:10:10;28.00;28.00;20.00
69349;PMS5003;64554;43.452;4.934;2023-05-20T06:12:37;34.75;32.00;20.00
69349;PMS5003;64554;43.452;4.934;2023-05-20T06:15:04;28.60;28.60;18.60
69349;PMS5003;64554;43.452;4.934;2023-05-20T06:17:31;32.00;29.00;19.00
69349;PMS5003;64554;43.452;4.934;2023-05-20T06:19:58;33.00;30.00;20.00
69349;PMS5003;64554;43.452;4.934;2023-05-20T06:22:25;31.40;28.60;19.00
69349;PMS5003;64554;43.452;4.934;2023-05-20T06:24:52;30.25;29.50;17.75
69349;PMS5003;64554;43.452;4.934;2023-05-20T06:27:19;24.00;24.00;16.20
69349;PMS5003;64554;43.452;4.934;2023-05-20T06:29:45;27.80;26.60;18.60
69349;PMS5003;64554;43.452;4.934;2023-05-20T06:32:12;30.00;29.00;19.80
69349;PMS5003;64554;43.452;4.934;2023-05-20T06:34:39;31.80;30.40;19.00
69349;PMS5003;64554;43.452;4.934;2023-05-20T06:37:05;27.00;26.50;17.00
69349;PMS5003;64554;43.452;4.934;2023-05-20T06:39:32;32.00;31.00;19.00
69349;PMS5003;64554;43.452;4.934;2023-05-20T06:41:58;31.50;30.50;19.00
69349;PMS5003;64554;43.452;4.934;2023-05-20T06:44:25;28.25;28.25;18.75
69349;PMS5003;64554;43.452;4.934;2023-05-20T06:46:51;35.00;29.00;17.50
69349;PMS5003;64554;43.452;4.934;2023-05-20T06:49:18;31.50;30.50;19.75
69349;PMS5003;64554;43.452;4.934;2023-05-20T06:51:44;33.50;30.25;20.00
69349;PMS5003;64554;43.452;4.934;2023-05-20T06:54:11;30.50;29.50;17.00
69349;PMS5003;64554;43.452;4.934;2023-05-20T06:56:37;28.00;26.00;17.00
69349;PMS5003;64554;43.452;4.934;2023-05-20T06:59:04;32.00;31.00;18.00
69349;PMS5003;64554;43.452;4.934;2023-05-20T07:01:30;26.20;25.60;15.60
69349;PMS5003;64554;43.452;4.934;2023-05-20T07:03:57;30.20;29.20;17.60
69349;PMS5003;64554;43.452;4.934;2023-05-20T07:06:24;26.20;24.00;16.20
69349;PMS5003;64554;43.452;4.934;2023-05-20T07:08:50;26.25;25.00;16.25
69349;PMS5003;64554;43.452;4.934;2023-05-20T07:11:17;28.60;25.60;15.60
69349;PMS5003;64554;43.452;4.934;2023-05-20T07:13:43;30.00;29.75;16.25
69349;PMS5003;64554;43.452;4.934;2023-05-20T07:16:10;27.25;25.75;17.00
69349;PMS5003;64554;43.452;4.934;2023-05-20T07:18:36;24.00;23.75;15.00
69349;PMS5003;64554;43.452;4.934;2023-05-20T07:21:03;29.00;27.75;16.75
69349;PMS5003;64554;43.452;4.934;2023-05-20T07:23:29;28.00;27.50;17.00
69349;PMS5003;64554;43.452;4.934;2023-05-20T07:25:56;24.80;23.60;17.20
69349;PMS5003;64554;43.452;4.934;2023-05-20T07:28:22;24.00;23.40;16.00
69349;PMS5003;64554;43.452;4.934;2023-05-20T07:30:49;24.50;24.00;16.00
69349;PMS5003;64554;43.452;4.934;2023-05-20T07:33:16;24.40;22.80;16.00
69349;PMS5003;64554;43.452;4.934;2023-05-20T07:35:43;27.50;27.50;15.25
69349;PMS5003;64554;43.452;4.934;2023-05-20T07:38:10;22.40;22.00;15.00
69349;PMS5003;64554;43.452;4.934;2023-05-20T07:40:38;28.00;26.00;15.50
69349;PMS5003;64554;43.452;4.934;2023-05-20T07:43:06;21.60;21.00;17.00
69349;PMS5003;64554;43.452;4.934;2023-05-20T07:45:35;23.25;22.25;16.25
69349;PMS5003;64554;43.452;4.934;2023-05-20T07:48:03;26.50;23.00;15.00
69349;PMS5003;64554;43.452;4.934;2023-05-20T07:50:30;26.00;26.00;16.00
69349;PMS5003;64554;43.452;4.934;2023-05-20T07:52:56;24.00;22.75;15.25
69349;PMS5003;64554;43.452;4.934;2023-05-20T07:55:23;28.20;28.20;17.80
69349;PMS5003;64554;43.452;4.934;2023-05-20T07:57:49;27.00;26.00;18.00
69349;PMS5003;64554;43.452;4.934;2023-05-20T08:00:16;26.80;24.80;16.00
69349;PMS5003;64554;43.452;4.934;2023-05-20T08:02:43;28.50;28.50;18.50
69349;PMS5003;64554;43.452;4.934;2023-05-20T08:05:09;30.00;29.00;20.00
69349;PMS5003;64554;43.452;4.934;2023-05-20T08:07:36;27.40;27.40;18.20
69349;PMS5003;64554;43.452;4.934;2023-05-20T08:10:03;29.00;28.00;19.00
69349;PMS5003;64554;43.452;4.934;2023-05-20T08:12:29;24.00;23.20;15.60
69349;PMS5003;64554;43.452;4.934;2023-05-20T08:14:56;26.50;25.00;18.25
69349;PMS5003;64554;43.452;4.934;2023-05-20T08:17:22;26.75;26.75;19.00
69349;PMS5003;64554;43.452;4.934;2023-05-20T08:19:49;25.75;25.75;18.00
69349;PMS5003;64554;43.452;4.934;2023-05-20T08:22:15;27.00;26.00;19.00
69349;PMS5003;64554;43.452;4.934;2023-05-20T08:24:42;30.00;28.40;19.20
69349;PMS5003;64554;43.452;4.934;2023-05-20T08:27:08;29.75;28.25;19.00
69349;PMS5003;64554;43.452;4.934;2023-05-20T08:29:35;35.00;32.00;22.00
69349;PMS5003;64554;43.452;4.934;2023-05-20T08:32:02;27.00;27.00;18.33
69349;PMS5003;64554;43.452;4.934;2023-05-20T08:34:28;37.00;32.40;19.40
69349;PMS5003;64554;43.452;4.934;2023-05-20T08:36:55;32.60;30.00;21.00
69349;PMS5003;64554;43.452;4.934;2023-05-20T08:39:23;25.80;25.80;18.00
69349;PMS5003;64554;43.452;4.934;2023-05-20T08:41:50;24.40;24.40;18.00
69349;PMS5003;64554;43.452;4.934;2023-05-20T08:44:16;30.20;29.40;19.80
69349;PMS5003;64554;43.452;4.934;2023-05-20T08:46:44;29.25;27.50;17.75
69349;PMS5003;64554;43.452;4.934;2023-05-20T08:49:11;29.20;25.80;17.20
69349;PMS5003;64554;43.452;4.934;2023-05-20T08:51:38;29.25;29.00;19.50
69349;PMS5003;64554;43.452;4.934;2023-05-20T08:54:05;24.00;24.00;17.00
69349;PMS5003;64554;43.452;4.934;2023-05-20T08:56:32;18.00;18.00;13.40
69349;PMS5003;64554;43.452;4.934;2023-05-20T08:58:59;23.00;21.00;15.00
69349;PMS5003;64554;43.452;4.934;2023-05-20T09:01:25;17.00;17.00;12.60
69349;PMS5003;64554;43.452;4.934;2023-05-20T09:03:52;15.20;13.60;10.60
69349;PMS5003;64554;43.452;4.934;2023-05-20T09:06:19;21.50;19.50;14.00
69349;PMS5003;64554;43.452;4.934;2023-05-20T09:08:47;22.00;19.75;11.75
69349;PMS5003;64554;43.452;4.934;2023-05-20T09:11:14;17.60;16.60;12.60
69349;PMS5003;64554;43.452;4.934;2023-05-20T09:13:40;20.00;20.00;13.00
69349;PMS5003;64554;43.452;4.934;2023-05-20T09:16:08;18.80;15.40;12.40
69349;PMS5003;64554;43.452;4.934;2023-05-20T09:18:37;17.25;15.75;12.25
69349;PMS5003;64554;43.452;4.934;2023-05-20T09:21:04;16.00;15.00;11.25
69349;PMS5003;64554;43.452;4.934;2023-05-20T09:23:32;17.00;16.60;11.00
69349;PMS5003;64554;43.452;4.934;2023-05-20T09:25:59;16.80;16.00;12.60
69349;PMS5003;64554;43.452;4.934;2023-05-20T09:28:27;21.60;19.60;13.60
69349;PMS5003;64554;43.452;4.934;2023-05-20T09:31:00;19.00;18.00;13.40
69349;PMS5003;64554;43.452;4.934;2023-05-20T09:33:27;21.00;21.00;16.20
69349;PMS5003;64554;43.452;4.934;2023-05-20T09:36:06;20.00;19.80;14.20
69349;PMS5003;64554;43.452;4.934;2023-05-20T09:38:34;23.00;21.00;15.00
69349;PMS5003;64554;43.452;4.934;2023-05-20T09:41:05;19.00;18.60;14.60
69349;PMS5003;64554;43.452;4.934;2023-05-20T09:43:34;23.00;22.50;16.00
69349;PMS5003;64554;43.452;4.934;2023-05-20T09:46:01;15.25;15.25;12.00
69349;PMS5003;64554;43.452;4.934;2023-05-20T09:48:28;24.60;23.60;15.40
69349;PMS5003;64554;43.452;4.934;2023-05-20T09:50:59;18.60;16.20;12.20
69349;PMS5003;64554;43.452;4.934;2023-05-20T09:53:26;19.00;19.00;15.40
69349;PMS5003;64554;43.452;4.934;2023-05-20T09:55:53;17.00;17.00;13.75
69349;PMS5003;64554;43.452;4.934;2023-05-20T09:58:24;15.25;15.25;10.75
69349;PMS5003;64554;43.452;4.934;2023-05-20T10:00:51;17.60;17.60;13.00
69349;PMS5003;64554;43.452;4.934;2023-05-20T10:03:17;19.00;18.00;12.00
69349;PMS5003;64554;43.452;4.934;2023-05-20T10:08:39;15.60;14.60;10.60
69349;PMS5003;64554;43.452;4.934;2023-05-20T10:11:14;15.00;15.00;11.50
69349;PMS5003;64554;43.452;4.934;2023-05-20T10:14:04;13.75;13.75;10.00
69349;PMS5003;64554;43.452;4.934;2023-05-20T10:21:29;14.00;14.00;10.00
69349;PMS5003;64554;43.452;4.934;2023-05-20T10:24:06;15.00;15.00;10.75
69349;PMS5003;64554;43.452;4.934;2023-05-20T10:26:34;14.80;13.20;11.00
69349;PMS5003;64554;43.452;4.934;2023-05-20T10:29:00;13.75;13.75;10.25
69349;PMS5003;64554;43.452;4.934;2023-05-20T10:31:27;14.00;13.60;10.00
69349;PMS5003;64554;43.452;4.934;2023-05-20T10:33:54;17.75;16.75;12.00
69349;PMS5003;64554;43.452;4.934;2023-05-20T10:36:21;19.50;19.50;11.00
69349;PMS5003;64554;43.452;4.934;2023-05-20T10:38:55;16.40;16.40;12.40
69349;PMS5003;64554;43.452;4.934;2023-05-20T10:41:26;14.00;14.00;10.60
69349;PMS5003;64554;43.452;4.934;2023-05-20T10:44:02;16.20;16.20;12.00
69349;PMS5003;64554;43.452;4.934;2023-05-20T10:46:32;21.60;20.60;10.80
69349;PMS5003;64554;43.452;4.934;2023-05-20T10:49:19;15.00;15.00;12.00
69349;PMS5003;64554;43.452;4.934;2023-05-20T10:51:52;15.60;15.60;10.00
69349;PMS5003;64554;43.452;4.934;2023-05-20T10:54:19;18.00;18.00;12.00
69349;PMS5003;64554;43.452;4.934;2023-05-20T10:56:53;15.50;14.00;11.50
69349;PMS5003;64554;43.452;4.934;2023-05-20T10:59:20;14.40;14.40;10.40
69349;PMS5003;64554;43.452;4.934;2023-05-20T11:01:47;16.00;15.60;11.00
69349;PMS5003;64554;43.452;4.934;2023-05-20T11:04:14;13.00;13.00;10.00
69349;PMS5003;64554;43.452;4.934;2023-05-20T11:06:49;16.00;16.00;11.50
69349;PMS5003;64554;43.452;4.934;2023-05-20T11:09:15;18.50;17.00;12.00
69349;PMS5003;64554;43.452;4.934;2023-05-20T11:11:42;16.40;16.00;12.00
69349;PMS5003;64554;43.452;4.934;2023-05-20T11:14:09;19.75;19.75;12.50
69349;PMS5003;64554;43.452;4.934;2023-05-20T11:16:40;17.00;15.50;10.50
69349;PMS5003;64554;43.452;4.934;2023-05-20T11:19:07;15.00;15.00;11.00
69349;PMS5003;64554;43.452;4.934;2023-05-20T11:21:41;17.40;16.60;12.00
69349;PMS5003;64554;43.452;4.934;2023-05-20T11:24:08;16.40;16.40;11.60
69349;PMS5003;64554;43.452;4.934;2023-05-20T11:26:35;21.00;21.00;12.00
69349;PMS5003;64554;43.452;4.934;2023-05-20T11:29:02;17.00;15.00;11.00
69349;PMS5003;64554;43.452;4.934;2023-05-20T11:31:28;14.80;14.80;10.80
69349;PMS5003;64554;43.452;4.934;2023-05-20T11:33:55;16.50;15.50;12.50
69349;PMS5003;64554;43.452;4.934;2023-05-20T11:36:22;15.50;15.50;11.50
69349;PMS5003;64554;43.452;4.934;2023-05-20T11:38:53;16.60;14.00;10.00
69349;PMS5003;64554;43.452;4.934;2023-05-20T11:41:24;14.60;14.60;9.60
69349;PMS5003;64554;43.452;4.934;2023-05-20T11:43:59;14.25;13.25;10.50
69349;PMS5003;64554;43.452;4.934;2023-05-20T11:46:26;13.00;13.00;9.00
69349;PMS5003;64554;43.452;4.934;2023-05-20T11:48:53;14.00;14.00;10.75
69349;PMS5003;64554;43.452;4.934;2023-05-20T11:51:23;13.50;13.50;9.50
69349;PMS5003;64554;43.452;4.934;2023-05-20T11:53:51;14.00;14.00;11.00
69349;PMS5003;64554;43.452;4.934;2023-05-20T11:56:17;18.40;18.00;11.00
69349;PMS5003;64554;43.452;4.934;2023-05-20T11:58:44;16.25;14.25;10.00
69349;PMS5003;64554;43.452;4.934;2023-05-20T12:01:11;15.67;14.00;12.00
69349;PMS5003;64554;43.452;4.934;2023-05-20T12:03:47;15.20;14.20;11.00
69349;PMS5003;64554;43.452;4.934;2023-05-20T12:06:14;13.50;12.50;9.00
69349;PMS5003;64554;43.452;4.934;2023-05-20T12:08:41;16.20;16.20;10.80
69349;PMS5003;64554;43.452;4.934;2023-05-20T12:11:08;15.25;13.75;10.75
69349;PMS5003;64554;43.452;4.934;2023-05-20T12:13:34;15.00;13.60;11.00
69349;PMS5003;64554;43.452;4.934;2023-05-20T12:16:01;14.40;14.00;10.40
69349;PMS5003;64554;43.452;4.934;2023-05-20T12:18:27;14.25;13.25;10.25
69349;PMS5003;64554;43.452;4.934;2023-05-20T12:20:54;13.60;12.00;8.60
69349;PMS5003;64554;43.452;4.934;2023-05-20T12:23:20;16.00;14.00;10.00
69349;PMS5003;64554;43.452;4.934;2023-05-20T12:25:47;16.50;16.50;11.50
69349;PMS5003;64554;43.452;4.934;2023-05-20T12:28:15;16.00;15.00;11.00
69349;PMS5003;64554;43.452;4.934;2023-05-20T12:30:43;14.00;14.00;11.00
69349;PMS5003;64554;43.452;4.934;2023-05-20T12:33:09;18.00;18.00;11.00
69349;PMS5003;64554;43.452;4.934;2023-05-20T12:35:39;15.25;14.25;11.75
69349;PMS5003;64554;43.452;4.934;2023-05-20T12:38:06;13.60;12.00;10.00
69349;PMS5003;64554;43.452;4.934;2023-05-20T12:40:33;16.00;15.00;11.60
69349;PMS5003;64554;43.452;4.934;2023-05-20T12:43:01;16.00;16.00;10.50
69349;PMS5003;64554;43.452;4.934;2023-05-20T12:45:28;15.00;14.00;10.60
69349;PMS5003;64554;43.452;4.934;2023-05-20T12:47:54;16.80;16.20;11.40
69349;PMS5003;64554;43.452;4.934;2023-05-20T12:50:22;14.80;14.80;11.00
69349;PMS5003;64554;43.452;4.934;2023-05-20T12:52:49;11.40;11.40;9.00
69349;PMS5003;64554;43.452;4.934;2023-05-20T12:55:16;12.20;12.20;10.00
69349;PMS5003;64554;43.452;4.934;2023-05-20T12:57:43;15.00;15.00;11.80
69349;PMS5003;64554;43.452;4.934;2023-05-20T13:00:10;15.00;14.40;11.00
69349;PMS5003;64554;43.452;4.934;2023-05-20T13:02:37;17.80;17.80;9.40
69349;PMS5003;64554;43.452;4.934;2023-05-20T13:05:05;15.00;15.00;10.25
69349;PMS5003;64554;43.452;4.934;2023-05-20T13:07:32;15.75;15.75;11.00
69349;PMS5003;64554;43.452;4.934;2023-05-20T13:09:59;19.50;19.50;10.75
69349;PMS5003;64554;43.452;4.934;2023-05-20T13:12:25;18.50;17.00;11.50
69349;PMS5003;64554;43.452;4.934;2023-05-20T13:14:52;13.20;12.60;10.60
69349;PMS5003;64554;43.452;4.934;2023-05-20T13:17:18;14.80;14.80;11.00
69349;PMS5003;64554;43.452;4.934;2023-05-20T13:19:45;15.00;15.00;10.50
69349;PMS5003;64554;43.452;4.934;2023-05-20T13:22:11;17.00;17.00;12.00
69349;PMS5003;64554;43.452;4.934;2023-05-20T13:24:38;15.33;15.33;12.33
69349;PMS5003;64554;43.452;4.934;2023-05-20T13:27:04;15.00;15.00;11.00
69349;PMS5003;64554;43.452;4.934;2023-05-20T13:29:31;19.40;19.40;9.40
69349;PMS5003;64554;43.452;4.934;2023-05-20T13:31:58;17.33;16.00;12.33
69349;PMS5003;64554;43.452;4.934;2023-05-20T13:34:28;14.20;14.20;12.20
69349;PMS5003;64554;43.452;4.934;2023-05-20T13:36:55;14.50;14.50;10.00
69349;PMS5003;64554;43.452;4.934;2023-05-20T13:39:22;16.33;16.00;13.00
69349;PMS5003;64554;43.452;4.934;2023-05-20T13:41:48;34.60;30.60;20.00
69349;PMS5003;64554;43.452;4.934;2023-05-20T13:44:15;26.80;26.80;17.00
69349;PMS5003;64554;43.452;4.934;2023-05-20T13:46:41;19.00;18.80;14.00
69349;PMS5003;64554;43.452;4.934;2023-05-20T13:49:08;16.00;16.00;13.00
69349;PMS5003;64554;43.452;4.934;2023-05-20T13:51:35;14.80;14.00;10.80
69349;PMS5003;64554;43.452;4.934;2023-05-20T13:54:01;17.20;17.20;10.20
69349;PMS5003;64554;43.452;4.934;2023-05-20T13:56:28;13.75;13.75;11.75